Time;durP1;ratioP1;P1;durP2;ratioP2;P2;SDS_P1;SDS_P2;PMS_P1;PMS_P2;Temp;Humidity;BMP_temperature;BMP_pressure;BME280_temperature;BME280_humidity;BME280_pressure;Samples;Min_cycle;Max_cycle;Signal;HPM_P1;HPM_P2
2021/04/12 00:00:06;;;;;;;9.80;5.15;;;7.00;99.90;;;;;;5011350;28;20034;-77
2021/04/12 00:02:42;;;;;;;9.25;4.68;;;6.80;99.90;;;;;;5020773;28;20048;-77
2021/04/12 00:05:21;;;;;;;7.60;5.20;;;6.80;99.90;;;;;;5031518;28;20032;-78
2021/04/12 00:07:53;;;;;;;8.60;4.38;;;6.70;99.90;;;;;;5034914;28;20041;-78
2021/04/12 00:10:56;;;;;;;7.05;4.78;;;6.80;99.90;;;;;;5053354;28;20013;-78
2021/04/12 00:13:51;;;;;;;8.25;4.60;;;6.80;99.90;;;;;;5052647;28;20118;-77
2021/04/12 00:16:27;;;;;;;10.40;4.65;;;6.80;99.90;;;;;;5011213;28;20034;-77
2021/04/12 00:19:02;;;;;;;6.15;4.90;;;6.80;99.90;;;;;;5011465;28;20046;-78
2021/04/12 00:21:52;;;;;;;5.22;4.35;;;6.80;99.90;;;;;;5011109;28;20129;-77
2021/04/12 00:24:57;;;;;;;9.05;5.32;;;6.90;99.90;;;;;;5011341;28;20044;-79
2021/04/12 00:27:37;;;;;;;11.98;5.30;;;6.80;99.90;;;;;;5004517;28;20053;-78
2021/04/12 00:30:11;;;;;;;8.85;4.75;;;6.80;99.90;;;;;;5011179;28;20061;-77
2021/04/12 00:32:47;;;;;;;6.15;4.47;;;6.80;99.90;;;;;;5010916;28;20545;-77
2021/04/12 00:35:57;;;;;;;6.88;4.30;;;6.60;99.90;;;;;;5011105;28;20490;-77
2021/04/12 00:38:39;;;;;;;6.88;4.45;;;6.60;99.90;;;;;;4973182;28;20480;-80
2021/04/12 00:41:46;;;;;;;6.13;4.18;;;6.60;99.90;;;;;;5010667;28;20693;-77
2021/04/12 00:44:17;;;;;;;6.00;3.80;;;6.50;99.90;;;;;;4991737;28;20077;-77
2021/04/12 00:46:57;;;;;;;7.97;4.30;;;6.50;99.90;;;;;;5010727;28;20052;-78
2021/04/12 00:49:43;;;;;;;;;;;6.40;99.90;;;;;;5011249;28;20064;-78
2021/04/12 00:52:42;;;;;;;6.20;3.85;;;6.50;99.90;;;;;;5013796;28;19905;-77
2021/04/12 00:55:33;;;;;;;7.60;3.97;;;6.50;99.90;;;;;;5052608;28;20040;-78
2021/04/12 00:58:48;;;;;;;7.30;3.53;;;6.40;99.90;;;;;;5052510;28;20021;-77
2021/04/12 01:01:31;;;;;;;5.45;3.58;;;6.40;99.90;;;;;;5010620;28;20026;-77
2021/04/12 01:04:05;;;;;;;4.40;3.70;;;6.40;99.90;;;;;;5010535;28;20573;-77
2021/04/12 01:07:08;;;;;;;8.57;2.80;;;6.30;99.90;;;;;;5010608;28;20030;-78
2021/04/12 01:09:40;;;;;;;3.95;2.85;;;6.20;99.90;;;;;;5010272;28;20038;-77
2021/04/12 01:12:34;;;;;;;6.15;3.75;;;6.20;99.90;;;;;;5010084;28;20026;-77
2021/04/12 01:15:17;;;;;;;9.52;3.63;;;6.10;99.90;;;;;;5010341;28;20069;-78
2021/04/12 01:17:53;;;;;;;9.20;3.85;;;6.10;99.90;;;;;;5010353;28;20034;-78
2021/04/12 01:20:40;;;;;;;5.05;3.35;;;6.10;99.90;;;;;;5010485;28;20030;-77
2021/04/12 01:23:39;;;;;;;4.43;3.13;;;6.00;99.90;;;;;;5010151;28;20042;-77
2021/04/12 01:26:38;;;;;;;12.60;4.88;;;6.00;99.90;;;;;;5009989;28;20036;-77
2021/04/12 01:29:24;;;;;;;5.72;3.72;;;6.00;99.90;;;;;;5010264;28;20054;-77
2021/04/12 01:32:23;;;;;;;6.13;3.50;;;6.00;99.90;;;;;;4992901;28;20080;-77
2021/04/12 01:35:17;;;;;;;5.07;3.58;;;6.00;99.90;;;;;;5036096;28;20047;-77
2021/04/12 01:37:49;;;;;;;4.78;3.58;;;5.90;99.90;;;;;;5071819;28;20477;-77
2021/04/12 01:40:41;;;;;;;5.43;3.97;;;5.90;99.90;;;;;;5071627;28;20024;-77
2021/04/12 01:43:44;;;;;;;7.57;4.22;;;5.80;99.90;;;;;;5071802;28;20032;-77
2021/04/12 01:46:50;;;;;;;5.47;3.92;;;5.80;99.90;;;;;;5009488;28;20119;-77
2021/04/12 01:49:34;;;;;;;6.57;3.97;;;5.80;99.90;;;;;;4970867;28;20035;-77
2021/04/12 01:52:21;;;;;;;8.48;3.75;;;5.80;99.90;;;;;;4970963;28;20033;-77
2021/04/12 01:55:06;;;;;;;4.30;3.75;;;5.80;99.90;;;;;;4970420;28;20035;-77
2021/04/12 01:58:03;;;;;;;5.90;4.07;;;5.80;99.90;;;;;;4971020;28;20035;-77
2021/04/12 02:01:06;;;;;;;6.43;4.07;;;5.80;99.90;;;;;;4970082;28;20166;-77
2021/04/12 02:03:43;;;;;;;6.10;4.15;;;5.80;99.90;;;;;;4970534;28;20047;-77
2021/04/12 02:06:34;;;;;;;6.70;4.25;;;5.80;99.90;;;;;;4970892;28;20039;-77
2021/04/12 02:09:20;;;;;;;5.13;4.07;;;5.80;99.90;;;;;;4970329;28;20027;-77
2021/04/12 02:12:14;;;;;;;6.82;4.03;;;5.90;99.90;;;;;;4970750;28;20031;-77
2021/04/12 02:14:43;;;;;;;9.25;4.53;;;6.00;99.90;;;;;;4970571;28;20029;-77
2021/04/12 02:17:30;;;;;;;10.05;4.82;;;5.90;99.90;;;;;;4970803;28;20042;-77
2021/04/12 02:20:07;;;;;;;7.40;3.72;;;5.80;99.90;;;;;;4970575;28;20038;-77
2021/04/12 02:23:21;;;;;;;6.38;4.13;;;5.70;99.90;;;;;;4981463;28;20037;-77
2021/04/12 02:25:50;;;;;;;7.50;3.25;;;5.60;99.90;;;;;;4986365;28;20034;-77
2021/04/12 02:28:38;;;;;;;6.63;3.53;;;5.70;99.90;;;;;;5009441;28;20567;-77
2021/04/12 02:31:23;;;;;;;4.25;2.90;;;5.70;99.90;;;;;;5009659;28;20022;-77
2021/04/12 02:34:04;;;;;;;4.72;2.95;;;5.70;99.90;;;;;;5009664;28;20482;-77
2021/04/12 02:37:00;;;;;;;8.20;3.95;;;5.70;99.90;;;;;;5009596;28;20049;-77
2021/04/12 02:39:43;;;;;;;4.85;3.60;;;5.60;99.90;;;;;;5009608;28;20033;-77
2021/04/12 02:42:41;;;;;;;5.93;3.05;;;5.70;99.90;;;;;;5009411;28;20104;-77
2021/04/12 02:45:22;;;;;;;5.93;2.85;;;5.60;99.90;;;;;;5009399;28;20038;-76
2021/04/12 02:48:06;;;;;;;5.68;2.83;;;5.60;99.90;;;;;;5009342;28;20033;-77
2021/04/12 02:50:38;;;;;;;3.55;2.47;;;5.60;99.90;;;;;;5009624;28;20561;-77
2021/04/12 02:53:31;;;;;;;7.75;2.70;;;5.50;99.90;;;;;;5009082;28;20052;-77
2021/04/12 02:56:19;;;;;;;3.25;2.28;;;5.40;99.90;;;;;;5009359;28;20049;-77
2021/04/12 02:59:06;;;;;;;2.88;2.28;;;5.40;99.90;;;;;;5010928;28;20029;-77
2021/04/12 03:02:09;;;;;;;5.00;2.63;;;5.30;99.90;;;;;;5034284;28;20052;-77
2021/04/12 03:04:44;;;;;;;9.43;2.47;;;5.40;99.90;;;;;;5074718;28;20051;-77
2021/04/12 03:07:47;;;;;;;4.15;2.17;;;5.30;99.90;;;;;;5074321;28;20031;-77
2021/04/12 03:10:49;;;;;;;8.32;2.85;;;5.30;99.90;;;;;;5074269;28;20028;-77
2021/04/12 03:13:33;;;;;;;6.25;1.90;;;5.30;99.90;;;;;;5074447;28;20085;-77
2021/04/12 03:16:11;;;;;;;2.30;2.10;;;5.20;99.90;;;;;;5073089;28;20381;-77
2021/04/12 03:19:16;;;;;;;6.95;2.53;;;5.20;99.90;;;;;;5074406;28;20112;-76
2021/04/12 03:22:00;;;;;;;2.95;2.00;;;5.20;99.90;;;;;;5074050;28;20047;-76
2021/04/12 03:24:31;;;;;;;3.20;2.10;;;5.20;99.90;;;;;;5074326;28;20039;-76
2021/04/12 03:27:25;;;;;;;5.70;2.10;;;5.20;99.90;;;;;;5073961;28;20504;-76
2021/04/12 03:30:00;;;;;;;5.85;1.80;;;5.10;99.90;;;;;;5074260;28;20127;-76
2021/04/12 03:32:54;;;;;;;4.13;2.28;;;5.10;99.90;;;;;;5074242;28;20012;-76
2021/04/12 03:35:57;;;;;;;3.72;2.25;;;5.10;99.90;;;;;;5073708;28;20421;-76
2021/04/12 03:39:05;;;;;;;2.80;1.95;;;5.10;99.90;;;;;;5073858;28;20139;-76
2021/04/12 03:41:43;;;;;;;4.65;2.05;;;5.10;99.90;;;;;;5072715;28;20452;-76
2021/04/12 03:44:39;;;;;;;5.53;2.40;;;5.00;99.90;;;;;;5072437;28;20108;-76
2021/04/12 03:47:22;;;;;;;6.15;2.00;;;5.10;99.90;;;;;;5073867;28;20008;-76
2021/04/12 03:49:54;;;;;;;9.15;3.65;;;5.10;99.90;;;;;;5073382;28;20024;-76
2021/04/12 03:52:43;;;;;;;3.97;2.67;;;5.10;99.90;;;;;;5073749;28;20396;-76
2021/04/12 03:55:41;;;;;;;4.47;2.37;;;5.10;99.90;;;;;;5073650;28;20035;-76
2021/04/12 03:58:43;;;;;;;5.53;2.72;;;5.10;99.90;;;;;;5073644;28;20420;-76
2021/04/12 04:01:30;;;;;;;4.15;2.15;;;5.10;99.90;;;;;;5073522;28;20162;-76
2021/04/12 04:04:08;;;;;;;2.55;1.90;;;5.00;99.90;;;;;;5053068;28;20032;-76
2021/04/12 04:06:51;;;;;;;4.50;3.33;;;5.00;99.90;;;;;;5053510;28;20477;-76
2021/04/12 04:09:45;;;;;;;3.70;2.20;;;4.90;99.90;;;;;;5053109;28;20032;-76
2021/04/12 04:12:48;;;;;;;3.90;1.90;;;4.90;99.90;;;;;;5053197;28;20021;-76
2021/04/12 04:15:17;;;;;;;2.30;1.67;;;4.80;99.90;;;;;;5053129;28;20096;-76
2021/04/12 04:18:01;;;;;;;5.72;1.83;;;4.80;99.90;;;;;;5053373;28;20028;-76
2021/04/12 04:20:49;;;;;;;7.60;2.53;;;4.70;99.90;;;;;;5052924;28;20049;-76
2021/04/12 04:23:39;;;;;;;3.17;1.60;;;4.80;99.90;;;;;;5052967;28;20028;-76
2021/04/12 04:26:24;;;;;;;4.20;1.92;;;4.70;99.90;;;;;;5053011;28;20500;-76
2021/04/12 04:29:20;;;;;;;3.35;2.20;;;4.60;99.90;;;;;;5052793;28;20522;-76
2021/04/12 04:32:05;;;;;;;3.00;1.73;;;4.70;99.90;;;;;;5053157;28;20025;-76
2021/04/12 04:34:49;;;;;;;2.05;1.70;;;4.60;99.90;;;;;;5052623;28;20025;-76
2021/04/12 04:37:23;;;;;;;5.97;1.83;;;4.60;99.90;;;;;;5052621;28;20032;-76
2021/04/12 04:40:11;;;;;;;4.70;1.73;;;4.40;99.90;;;;;;5052918;28;20021;-76
2021/04/12 04:43:05;;;;;;;3.60;1.80;;;4.30;99.90;;;;;;5052709;28;20112;-76
2021/04/12 04:45:56;;;;;;;5.05;1.70;;;4.30;99.90;;;;;;5052666;28;20052;-76
2021/04/12 04:48:32;;;;;;;3.83;1.98;;;4.20;99.90;;;;;;5052317;28;20025;-76
2021/04/12 04:51:12;;;;;;;3.35;1.42;;;4.10;99.90;;;;;;5056971;28;20028;-75
2021/04/12 04:53:37;;;;;;;;;;;4.10;99.90;;;;;;5068682;28;20115;-75
2021/04/12 04:56:21;;;;;;;2.97;1.85;;;4.10;99.90;;;;;;5060488;28;20451;-75
2021/04/12 04:59:05;;;;;;;3.38;1.58;;;4.10;99.90;;;;;;5071554;28;20074;-75
2021/04/12 05:02:01;;;;;;;4.00;1.83;;;4.00;99.90;;;;;;5062593;28;20575;-75
2021/04/12 05:05:04;;;;;;;2.45;1.38;;;4.00;99.90;;;;;;5069242;28;20025;-76
2021/04/12 05:07:45;;;;;;;4.88;2.05;;;4.10;99.90;;;;;;5061761;28;20027;-75
2021/04/12 05:10:30;;;;;;;2.65;1.30;;;4.20;99.90;;;;;;5070087;28;20017;-75
2021/04/12 05:13:14;;;;;;;4.82;1.90;;;4.10;99.90;;;;;;5052178;28;20432;-75
2021/04/12 05:16:28;;;;;;;7.03;2.35;;;4.20;99.90;;;;;;5066838;28;20086;-75
2021/04/12 05:19:34;;;;;;;5.90;2.30;;;4.30;99.90;;;;;;5067609;28;20117;-76
2021/04/12 05:22:21;;;;;;;3.22;2.05;;;4.50;99.90;;;;;;5011298;28;20077;-76
2021/04/12 05:25:04;;;;;;;2.65;2.03;;;4.50;99.90;;;;;;5001455;28;20030;-75
2021/04/12 05:28:07;;;;;;;4.15;1.98;;;4.50;99.90;;;;;;5000804;28;20050;-76
2021/04/12 05:30:33;;;;;;;4.43;2.25;;;4.40;99.90;;;;;;5000434;28;20034;-75
2021/04/12 05:33:17;;;;;;;4.00;1.50;;;4.50;99.90;;;;;;4998106;28;20562;-76
2021/04/12 05:36:07;;;;;;;2.35;1.83;;;4.50;99.90;;;;;;5000337;28;20108;-76
2021/04/12 05:38:42;;;;;;;2.78;1.63;;;4.50;99.90;;;;;;4995495;28;20082;-75
2021/04/12 05:41:15;;;;;;;4.00;1.75;;;4.50;99.90;;;;;;5000859;28;20099;-76
2021/04/12 05:44:02;;;;;;;2.08;1.60;;;4.50;99.90;;;;;;5007215;28;20121;-76
2021/04/12 05:46:57;;;;;;;5.28;2.00;;;4.50;99.90;;;;;;5007863;28;20121;-76
2021/04/12 05:49:29;;;;;;;7.72;2.00;;;4.60;99.90;;;;;;5004544;28;20050;-75
2021/04/12 05:52:23;;;;;;;3.28;2.15;;;4.80;99.90;;;;;;4998221;28;20069;-75
2021/04/12 05:55:11;;;;;;;2.40;1.88;;;4.80;99.90;;;;;;4994180;28;20113;-75
2021/04/12 05:58:10;;;;;;;4.75;2.15;;;4.90;99.90;;;;;;5000782;28;20027;-75
2021/04/12 06:00:54;;;;;;;5.35;1.95;;;4.90;99.90;;;;;;5062626;28;20082;-73
2021/04/12 06:03:30;;;;;;;3.67;2.17;;;4.90;99.90;;;;;;5063017;28;20028;-72
2021/04/12 06:06:14;;;;;;;6.60;1.80;;;5.00;99.90;;;;;;5066273;28;20031;-72
2021/04/12 06:08:48;;;;;;;11.05;3.30;;;5.00;99.90;;;;;;5059950;28;20507;-72
2021/04/12 06:11:58;;;;;;;4.32;1.88;;;5.20;99.90;;;;;;5067246;28;20077;-71
2021/04/12 06:14:57;;;;;;;4.20;2.35;;;5.30;99.90;;;;;;5060709;28;20024;-72
2021/04/12 06:17:54;;;;;;;3.47;1.40;;;5.40;99.90;;;;;;5057071;28;20036;-72
2021/04/12 06:20:34;;;;;;;5.55;1.92;;;5.50;99.90;;;;;;5051808;28;20025;-72
2021/04/12 06:23:28;;;;;;;3.03;1.63;;;5.60;99.90;;;;;;5053813;28;20112;-72
2021/04/12 06:26:12;;;;;;;3.58;1.45;;;5.60;99.90;;;;;;5068228;28;20411;-72
2021/04/12 06:29:06;;;;;;;5.60;1.98;;;5.80;99.90;;;;;;5063680;28;20037;-73
2021/04/12 06:31:54;;;;;;;3.95;1.48;;;5.80;99.90;;;;;;5065903;28;20020;-73
2021/04/12 06:34:36;;;;;;;2.53;1.58;;;5.70;99.90;;;;;;5065702;28;20035;-73
2021/04/12 06:37:33;;;;;;;4.65;1.52;;;5.70;99.90;;;;;;5067477;28;20436;-73
2021/04/12 06:40:37;;;;;;;2.03;1.02;;;5.90;99.90;;;;;;5063861;28;20021;-73
2021/04/12 06:43:47;;;;;;;3.58;1.20;;;5.70;99.90;;;;;;5010157;28;20132;-73
2021/04/12 06:46:40;;;;;;;3.72;2.42;;;5.70;99.90;;;;;;4952724;28;20042;-73
2021/04/12 06:49:43;;;;;;;6.00;1.70;;;5.70;99.90;;;;;;4968333;28;20035;-73
2021/04/12 06:52:21;;;;;;;2.55;0.98;;;5.80;99.90;;;;;;4967963;28;20122;-73
2021/04/12 06:58:01;;;;;;;3.25;1.33;;;5.80;99.90;;;;;;4954600;28;20039;-73
2021/04/12 07:01:04;;;;;;;2.60;1.10;;;5.80;99.90;;;;;;4964812;28;20386;-73
2021/04/12 07:04:03;;;;;;;2.97;1.63;;;5.90;99.90;;;;;;4955651;28;20031;-73
2021/04/12 07:07:06;;;;;;;2.50;0.88;;;6.00;99.90;;;;;;4966561;28;20045;-73
2021/04/12 07:10:05;;;;;;;4.72;0.90;;;5.90;99.90;;;;;;4956589;28;20770;-73
2021/04/12 07:12:51;;;;;;;5.13;1.35;;;6.00;99.90;;;;;;4959865;28;20031;-73
2021/04/12 07:15:43;;;;;;;3.38;1.08;;;5.90;99.90;;;;;;4956490;28;20176;-73
2021/04/12 07:18:28;;;;;;;4.68;1.33;;;5.90;99.90;;;;;;4893879;29;20049;-73
2021/04/12 07:21:14;;;;;;;4.18;0.98;;;6.00;99.90;;;;;;5013334;28;20052;-73
2021/04/12 07:23:58;;;;;;;2.92;1.05;;;6.20;99.90;;;;;;5021394;28;20049;-73
2021/04/12 07:27:01;;;;;;;4.00;1.08;;;6.50;99.90;;;;;;5026776;28;20117;-73
2021/04/12 07:29:40;;;;;;;4.10;1.05;;;6.50;99.90;;;;;;5029412;28;20049;-73
2021/04/12 07:32:43;;;;;;;6.78;2.40;;;6.50;99.90;;;;;;5026585;28;20148;-73
2021/04/12 07:35:27;;;;;;;7.15;1.17;;;6.40;99.90;;;;;;5028629;28;20541;-73
2021/04/12 07:38:23;;;;;;;3.42;0.88;;;6.00;99.90;;;;;;5014594;28;20402;-74
2021/04/12 07:41:07;;;;;;;0.85;0.60;;;5.90;99.90;;;;;;5031698;28;20039;-74
2021/04/12 07:44:06;;;;;;;2.78;1.83;;;5.90;99.90;;;;;;5029604;28;20044;-74
2021/04/12 07:46:59;;;;;;;5.25;1.48;;;6.20;99.90;;;;;;5015108;28;20127;-74
2021/04/12 07:49:59;;;;;;;1.38;1.13;;;6.40;99.90;;;;;;5031803;28;20046;-74
2021/04/12 07:53:14;;;;;;;1.25;0.80;;;6.50;99.90;;;;;;5031430;28;20030;-74
2021/04/12 07:56:05;;;;;;;6.70;1.48;;;6.70;99.90;;;;;;5039180;28;21383;-74
2021/04/12 07:59:01;;;;;;;0.80;0.63;;;6.70;99.90;;;;;;5063574;28;20017;-74
2021/04/12 08:01:46;;;;;;;1.25;1.13;;;6.80;99.00;;;;;;5070985;28;20032;-74
2021/04/12 08:04:49;;;;;;;0.50;0.50;;;6.80;99.90;;;;;;5073754;28;20065;-74
2021/04/12 08:07:39;;;;;;;2.10;0.75;;;6.80;97.30;;;;;;5053875;28;20025;-74
2021/04/12 08:10:22;;;;;;;4.00;0.65;;;6.90;98.10;;;;;;5055086;28;20435;-74
2021/04/12 08:13:18;;;;;;;1.65;0.75;;;7.10;99.90;;;;;;5061527;28;20491;-74
2021/04/12 08:16:21;;;;;;;4.60;1.25;;;7.00;97.70;;;;;;5065262;28;20047;-75
2021/04/12 08:19:13;;;;;;;2.72;0.75;;;7.00;98.20;;;;;;5072272;28;20024;-74
2021/04/12 08:22:03;;;;;;;2.70;0.80;;;7.10;95.70;;;;;;5070087;28;20370;-74
2021/04/12 08:24:43;;;;;;;;;;;7.40;99.20;;;;;;5063711;28;20032;-74
2021/04/12 08:27:25;;;;;;;2.88;1.40;;;7.50;97.50;;;;;;5072206;28;20003;-75
2021/04/12 08:30:02;;;;;;;3.33;0.80;;;7.70;99.90;;;;;;5057621;28;20646;-75
2021/04/12 08:32:46;;;;;;;0.98;0.70;;;7.60;95.10;;;;;;5069068;28;20043;-75
2021/04/12 08:35:31;;;;;;;4.65;1.05;;;7.80;99.80;;;;;;5053488;28;20392;-74
2021/04/12 08:38:11;;;;;;;1.73;0.93;;;7.60;97.40;;;;;;5060401;28;20051;-75
2021/04/12 08:40:46;;;;;;;1.75;0.80;;;7.90;89.30;;;;;;5059345;28;20094;-74
2021/04/12 08:43:35;;;;;;;1.45;0.70;;;8.10;98.60;;;;;;5059580;28;20036;-74
2021/04/12 08:46:33;;;;;;;2.53;1.00;;;7.90;96.10;;;;;;5059132;28;20507;-74
2021/04/12 08:49:11;;;;;;;2.78;0.90;;;8.00;94.40;;;;;;5067970;28;20032;-74
2021/04/12 08:52:05;;;;;;;5.88;1.02;;;8.50;92.20;;;;;;5071198;28;20036;-74
2021/04/12 08:55:04;;;;;;;5.30;1.27;;;8.60;91.10;;;;;;5067132;28;20052;-74
2021/04/12 08:58:08;;;;;;;3.70;0.73;;;9.20;95.10;;;;;;5062731;28;20154;-74
2021/04/12 09:01:00;;;;;;;2.03;1.00;;;9.50;94.10;;;;;;5062737;28;20036;-75
2021/04/12 09:03:58;;;;;;;3.30;0.98;;;9.30;89.40;;;;;;5068793;28;20124;-74
2021/04/12 09:07:11;;;;;;;4.40;0.93;;;8.90;90.20;;;;;;5069229;28;20476;-75
2021/04/12 09:09:46;;;;;;;3.92;0.90;;;9.20;86.70;;;;;;5024529;28;20095;-74
2021/04/12 09:12:51;;;;;;;2.95;0.70;;;9.60;92.70;;;;;;5010742;28;20042;-74
2021/04/12 09:16:00;;;;;;;1.08;0.88;;;9.30;92.20;;;;;;5029379;28;20022;-74
2021/04/12 09:18:28;;;;;;;1.67;0.85;;;11.80;81.20;;;;;;4940005;29;20035;-74
2021/04/12 09:21:12;;;;;;;1.55;0.88;;;15.90;59.70;;;;;;4933113;29;20464;-74
2021/04/12 09:24:15;;;;;;;0.73;0.73;;;11.30;59.70;;;;;;4932498;29;20163;-74
2021/04/12 09:27:06;;;;;;;2.53;0.85;;;14.90;61.40;;;;;;4933735;29;20079;-75
2021/04/12 09:29:56;;;;;;;0.93;0.82;;;15.60;57.10;;;;;;4930423;29;20401;-75
2021/04/12 09:33:03;;;;;;;1.00;0.80;;;15.20;54.50;;;;;;4938087;29;20096;-74
2021/04/12 09:35:35;;;;;;;1.58;0.65;;;13.90;62.40;;;;;;4933866;29;20046;-75
2021/04/12 09:38:43;;;;;;;2.22;1.15;;;12.90;61.30;;;;;;4944992;29;20071;-75
2021/04/12 09:41:31;;;;;;;1.02;0.93;;;14.20;63.70;;;;;;4947927;29;20028;-75
2021/04/12 09:44:18;;;;;;;1.60;0.57;;;18.00;54.20;;;;;;4971594;28;20050;-75
2021/04/12 09:47:06;;;;;;;1.92;1.00;;;16.80;52.40;;;;;;4977705;28;20061;-75
2021/04/12 09:50:16;;;;;;;0.90;0.90;;;15.90;56.00;;;;;;4982419;28;20132;-75
2021/04/12 09:52:53;;;;;;;1.63;0.73;;;15.80;53.70;;;;;;4960261;28;20049;-75
2021/04/12 09:55:27;;;;;;;3.00;0.98;;;14.10;55.70;;;;;;4989629;28;20042;-74
2021/04/12 09:58:20;;;;;;;8.20;1.30;;;15.10;57.70;;;;;;4989210;28;20081;-75
2021/04/12 10:01:03;;;;;;;3.63;1.10;;;19.70;50.20;;;;;;4989142;28;20638;-75
2021/04/12 10:03:50;;;;;;;2.08;0.82;;;17.60;48.50;;;;;;4989263;28;20117;-75
2021/04/12 10:07:00;;;;;;;1.38;1.00;;;17.70;52.20;;;;;;4987981;28;20465;-75
2021/04/12 10:09:50;;;;;;;3.67;1.20;;;19.00;48.50;;;;;;4988027;28;20026;-75
2021/04/12 10:12:34;;;;;;;2.28;1.25;;;21.50;49.90;;;;;;4988405;28;20057;-75
2021/04/12 10:15:09;;;;;;;3.38;1.10;;;18.10;47.50;;;;;;4987588;28;20026;-75
2021/04/12 10:17:45;;;;;;;1.67;1.20;;;17.10;49.70;;;;;;4990734;28;20042;-75
2021/04/12 10:20:38;;;;;;;3.90;1.13;;;17.00;46.30;;;;;;4995909;28;20022;-75
2021/04/12 10:23:15;;;;;;;2.17;1.73;;;17.80;54.60;;;;;;4986095;28;20157;-75
2021/04/12 10:25:48;;;;;;;1.50;1.40;;;21.40;48.00;;;;;;4992190;28;20034;-75
2021/04/12 10:28:28;;;;;;;2.28;1.30;;;24.40;47.60;;;;;;4992629;28;20461;-75
2021/04/12 10:30:56;;;;;;;1.08;0.82;;;25.80;44.00;;;;;;5061434;28;20029;-75
2021/04/12 10:33:42;;;;;;;2.15;0.85;;;17.40;49.10;;;;;;5069525;28;20029;-75
2021/04/12 10:36:38;;;;;;;1.27;0.85;;;13.50;57.50;;;;;;5063448;28;20025;-75
2021/04/12 10:39:19;;;;;;;2.15;0.88;;;11.10;64.90;;;;;;5070167;28;20040;-75
2021/04/12 10:41:53;;;;;;;1.67;1.58;;;12.10;69.40;;;;;;5069125;28;20016;-74
2021/04/12 10:44:34;;;;;;;1.20;0.85;;;15.40;62.30;;;;;;5066729;28;20451;-75
2021/04/12 10:47:18;;;;;;;2.63;1.50;;;17.10;55.40;;;;;;5068921;28;20047;-75
2021/04/12 10:50:00;;;;;;;1.35;1.10;;;21.30;47.20;;;;;;5064277;28;20029;-75
2021/04/12 10:52:46;;;;;;;2.92;1.48;;;24.00;45.80;;;;;;5065797;28;20504;-75
2021/04/12 10:55:21;;;;;;;1.58;1.48;;;23.70;41.50;;;;;;5064165;28;20032;-75
2021/04/12 10:58:25;;;;;;;1.38;1.00;;;22.10;43.40;;;;;;5065000;28;20381;-75
2021/04/12 11:01:13;;;;;;;2.13;1.05;;;18.20;46.30;;;;;;5064157;28;20166;-75
2021/04/12 11:04:05;;;;;;;1.50;1.40;;;16.70;48.70;;;;;;5071546;28;20103;-75
2021/04/12 11:06:53;;;;;;;3.28;1.50;;;17.60;51.50;;;;;;5061461;28;20040;-75
2021/04/12 11:09:44;;;;;;;1.38;1.25;;;22.10;47.40;;;;;;5065230;28;20043;-75
2021/04/12 11:12:15;;;;;;;;;;;26.60;40.80;;;;;;5063234;28;20103;-75
2021/04/12 11:14:53;;;;;;;3.63;1.00;;;19.70;42.60;;;;;;5083030;28;20400;-78
2021/04/12 11:17:43;;;;;;;2.67;1.55;;;17.30;49.60;;;;;;5063778;28;20029;-75
2021/04/12 11:20:15;;;;;;;1.10;0.70;;;19.30;44.40;;;;;;5067232;28;20081;-74
2021/04/12 11:23:06;;;;;;;1.30;0.90;;;16.30;52.60;;;;;;5060536;28;20112;-74
2021/04/12 11:25:46;;;;;;;;;;;15.10;53.70;;;;;;5055410;28;20093;-74
2021/04/12 11:28:19;;;;;;;4.07;0.90;;;14.10;52.80;;;;;;5062356;28;19917;-74
2021/04/12 11:30:54;;;;;;;1.02;0.75;;;14.90;54.10;;;;;;5066710;28;20404;-74
2021/04/12 11:33:35;;;;;;;1.95;0.82;;;14.30;57.80;;;;;;5072690;28;20036;-74
2021/04/12 11:36:25;;;;;;;1.50;1.40;;;12.70;57.30;;;;;;5073348;28;20123;-73
2021/04/12 11:39:08;;;;;;;4.35;1.42;;;15.80;61.10;;;;;;5072464;28;20124;-74
2021/04/12 11:41:48;;;;;;;2.38;1.27;;;23.40;48.80;;;;;;5065489;28;20035;-74
2021/04/12 11:44:20;;;;;;;1.70;1.60;;;23.20;41.40;;;;;;5080152;28;20476;-74
2021/04/12 11:46:58;;;;;;;1.60;1.08;;;27.20;42.60;;;;;;5073688;28;20029;-74
2021/04/12 11:49:31;;;;;;;2.50;1.30;;;21.20;42.00;;;;;;5069091;28;20032;-75
2021/04/12 11:52:15;;;;;;;2.15;1.10;;;17.40;49.70;;;;;;5063561;28;20034;-74
2021/04/12 11:55:02;;;;;;;2.25;1.30;;;15.50;51.70;;;;;;5067336;28;20037;-74
2021/04/12 11:57:48;;;;;;;1.80;1.23;;;21.60;46.50;;;;;;5062131;28;20032;-74
2021/04/12 12:00:31;;;;;;;1.70;1.38;;;26.10;39.30;;;;;;5070460;28;20043;-74
2021/04/12 12:03:20;;;;;;;2.78;1.30;;;27.80;41.00;;;;;;5058238;28;20548;-75
2021/04/12 12:06:03;;;;;;;2.65;1.00;;;29.20;39.70;;;;;;5061789;28;20029;-74
2021/04/12 12:08:42;;;;;;;1.45;1.23;;;25.80;39.00;;;;;;5064672;28;20036;-75
2021/04/12 12:11:31;;;;;;;2.72;1.63;;;26.90;40.50;;;;;;5065028;28;20047;-75
2021/04/12 12:14:04;;;;;;;3.42;1.20;;;24.50;43.40;;;;;;5064905;28;20438;-75
2021/04/12 12:16:37;;;;;;;3.22;1.15;;;28.60;37.50;;;;;;5072799;28;20012;-74
2021/04/12 12:19:24;;;;;;;1.38;1.20;;;26.50;36.90;;;;;;5064330;28;20033;-74
2021/04/12 12:22:27;;;;;;;2.28;1.00;;;27.20;36.50;;;;;;5069572;28;20484;-74
2021/04/12 12:25:28;;;;;;;1.10;1.00;;;20.80;43.90;;;;;;5072686;28;20040;-74
2021/04/12 12:28:28;;;;;;;3.25;1.73;;;17.80;53.30;;;;;;5057215;28;20041;-74
2021/04/12 12:31:33;;;;;;;;;;;17.40;57.20;;;;;;5084658;28;20716;-74
2021/04/12 12:34:31;;;;;;;0.95;0.73;;;16.10;56.30;;;;;;5072764;28;20463;-73
2021/04/12 12:37:24;;;;;;;3.13;1.63;;;15.80;59.70;;;;;;5061396;28;20020;-74
2021/04/12 12:39:56;;;;;;;2.55;1.40;;;15.70;59.80;;;;;;5042215;28;20059;-74
2021/04/12 12:42:26;;;;;;;2.65;1.45;;;19.00;52.30;;;;;;5045350;28;20037;-74
2021/04/12 12:44:54;;;;;;;;;;;24.50;49.50;;;;;;5048607;28;20788;-74
2021/04/12 12:47:25;;;;;;;1.92;1.08;;;21.80;43.10;;;;;;5047160;28;20028;-74
2021/04/12 12:49:58;;;;;;;2.25;1.10;;;19.20;49.50;;;;;;5041610;28;20028;-74
2021/04/12 12:52:31;;;;;;;1.30;1.20;;;18.50;51.60;;;;;;5036933;28;20390;-74
2021/04/12 12:55:00;;;;;;;2.28;1.60;;;17.90;53.10;;;;;;5031530;28;20029;-74
2021/04/12 12:57:33;;;;;;;1.97;1.73;;;25.30;46.60;;;;;;5017281;28;20073;-74
2021/04/12 13:00:10;;;;;;;1.45;1.30;;;28.30;42.30;;;;;;5043484;28;20040;-74
2021/04/12 13:02:38;;;;;;;2.20;1.10;;;28.00;37.80;;;;;;5046860;28;20100;-74
2021/04/12 13:05:36;;;;;;;2.80;1.30;;;27.80;41.10;;;;;;5034062;28;20040;-74
2021/04/12 13:08:28;;;;;;;1.35;1.25;;;28.30;41.20;;;;;;4970145;28;20047;-74
2021/04/12 13:10:55;;;;;;;1.65;1.42;;;27.70;39.60;;;;;;4970736;28;20049;-74
2021/04/12 13:13:28;;;;;;;2.40;1.83;;;28.10;41.20;;;;;;4970514;28;20105;-75
2021/04/12 13:15:57;;;;;;;1.13;1.02;;;30.30;40.60;;;;;;4974707;28;20760;-75
2021/04/12 13:18:22;;;;;;;2.92;0.90;;;24.60;41.20;;;;;;5009382;28;20042;-75
2021/04/12 13:20:58;;;;;;;1.52;1.40;;;20.60;48.10;;;;;;5011174;28;20042;-75
2021/04/12 13:23:43;;;;;;;2.08;1.88;;;22.70;51.40;;;;;;5009363;28;20045;-75
2021/04/12 13:26:27;;;;;;;2.83;1.50;;;27.50;42.60;;;;;;5009237;28;20129;-75
2021/04/12 13:28:55;;;;;;;2.08;1.55;;;28.60;39.60;;;;;;5009308;28;20117;-75
2021/04/12 13:31:47;;;;;;;2.00;1.20;;;27.60;38.20;;;;;;5009335;28;20595;-75
2021/04/12 13:34:44;;;;;;;2.95;1.40;;;25.60;39.30;;;;;;5009094;28;20049;-72
2021/04/12 13:37:16;;;;;;;4.15;1.98;;;27.00;41.40;;;;;;5007728;28;20042;-73
2021/04/12 13:39:59;;;;;;;1.80;1.15;;;28.50;40.10;;;;;;5008987;28;20029;-73
2021/04/12 13:42:33;;;;;;;1.35;1.25;;;22.80;43.40;;;;;;5008135;28;20157;-72
2021/04/12 13:45:08;;;;;;;1.70;1.50;;;21.00;48.60;;;;;;5069156;28;20127;-72
2021/04/12 13:47:47;;;;;;;3.28;1.02;;;25.60;42.60;;;;;;5067561;28;20027;-72
2021/04/12 13:50:19;;;;;;;3.28;1.20;;;20.10;42.90;;;;;;5065205;28;20484;-72
2021/04/12 13:52:51;;;;;;;1.50;1.40;;;19.90;49.30;;;;;;5065765;28;20807;-72
2021/04/12 13:55:25;;;;;;;2.63;1.40;;;23.60;45.90;;;;;;5062004;28;20476;-72
2021/04/12 13:58:06;;;;;;;1.30;1.02;;;26.50;39.30;;;;;;5065933;28;20079;-72
2021/04/12 14:00:45;;;;;;;1.52;1.10;;;22.30;43.30;;;;;;5062184;28;20586;-72
2021/04/12 14:03:24;;;;;;;1.60;1.05;;;19.30;49.90;;;;;;5065944;28;20538;-74
2021/04/12 14:06:10;;;;;;;1.20;1.10;;;17.70;51.30;;;;;;5059226;28;20036;-75
2021/04/12 14:08:52;;;;;;;2.45;1.40;;;16.80;54.80;;;;;;5062676;28;20112;-74
2021/04/12 14:11:32;;;;;;;3.28;1.30;;;18.30;53.30;;;;;;5066616;28;20028;-74
2021/04/12 14:14:41;;;;;;;1.27;1.10;;;17.90;51.90;;;;;;5064836;28;20029;-74
2021/04/12 14:17:17;;;;;;;2.97;1.20;;;17.30;53.50;;;;;;5056676;28;20552;-74
2021/04/12 14:19:50;;;;;;;2.50;1.10;;;16.70;58.70;;;;;;5059571;28;20017;-74
2021/04/12 14:22:40;;;;;;;3.60;1.55;;;16.10;56.00;;;;;;5064108;28;20071;-74
2021/04/12 14:25:29;;;;;;;1.90;1.80;;;15.40;57.70;;;;;;5054173;28;20025;-74
2021/04/12 14:28:30;;;;;;;1.27;1.20;;;15.70;58.40;;;;;;5066303;28;20032;-74
2021/04/12 14:31:38;;;;;;;2.53;1.30;;;16.30;57.90;;;;;;5044835;28;20120;-74
2021/04/12 14:34:08;;;;;;;1.45;1.33;;;17.00;61.20;;;;;;5009421;28;20092;-74
2021/04/12 14:36:43;;;;;;;3.58;1.77;;;17.20;58.00;;;;;;5009659;28;20030;-74
2021/04/12 14:39:31;;;;;;;1.58;1.42;;;17.50;59.60;;;;;;5009436;28;20046;-74